Aviation Digital Data Service (ADDS)

Output produced by METARs form (0246 UTC 22 April 2019)
found at http://www.aviationweather.gov/metar/data/
 
METAR text: SLVR 220200Z VRB02KT 9999 BKN017 BKN200 25/24 Q1010
Conditions at: SLVR (VIRU VIRU INTL A, BO) observed 0200 UTC 22 April 2019
Temperature: 25.0°C (77°F)
Dewpoint: 24.0°C (75°F) [RH = 94%]
Pressure (altimeter): 29.82 inches Hg (1010.0 mb)
Winds: variable direction winds at 2 MPH (2 knots; 1.0 m/s)
Visibility: 6 or more miles (10+ km)
Ceiling: 1700 feet AGL
Clouds: broken clouds at 1700 feet AGL
broken clouds at 20000 feet AGL
Weather: no significant weather observed at this time

METAR text: SLVR 220100Z 30004KT 9999 FEW017 BKN200 25/24 Q1010
Conditions at: SLVR (VIRU VIRU INTL A, BO) observed 0100 UTC 22 April 2019
Temperature: 25.0°C (77°F)
Dewpoint: 24.0°C (75°F) [RH = 94%]
Pressure (altimeter): 29.82 inches Hg (1010.0 mb)
Winds: from the WNW (300 degrees) at 5 MPH (4 knots; 2.1 m/s)
Visibility: 6 or more miles (10+ km)
Ceiling: 20000 feet AGL
Clouds: few clouds at 1700 feet AGL
broken clouds at 20000 feet AGL
Weather: no significant weather observed at this time

METAR text: SLVR 220000Z 30004KT 9999 FEW017 BKN200 25/24 Q1009
Conditions at: SLVR (VIRU VIRU INTL A, BO) observed 0000 UTC 22 April 2019
Temperature: 25.0°C (77°F)
Dewpoint: 24.0°C (75°F) [RH = 94%]
Pressure (altimeter): 29.79 inches Hg (1009.0 mb)
Winds: from the WNW (300 degrees) at 5 MPH (4 knots; 2.1 m/s)
Visibility: 6 or more miles (10+ km)
Ceiling: 20000 feet AGL
Clouds: few clouds at 1700 feet AGL
broken clouds at 20000 feet AGL
Weather: no significant weather observed at this time

METAR text: SLVR 212300Z 34004KT 9999 FEW017 26/24 Q1008
Conditions at: SLVR (VIRU VIRU INTL A, BO) observed 2300 UTC 21 April 2019
Temperature: 26.0°C (79°F)
Dewpoint: 24.0°C (75°F) [RH = 89%]
Pressure (altimeter): 29.76 inches Hg (1008.0 mb)
Winds: from the NNW (340 degrees) at 5 MPH (4 knots; 2.1 m/s)
Visibility: 6 or more miles (10+ km)
Ceiling: at least 12,000 feet AGL
Clouds: few clouds at 1700 feet AGL
Weather: no significant weather observed at this time

METAR text: SLVR 212200Z 33006KT 9999 FEW017 FEW030CB BKN200 27/24 Q1008
Conditions at: SLVR (VIRU VIRU INTL A, BO) observed 2200 UTC 21 April 2019
Temperature: 27.0°C (81°F)
Dewpoint: 24.0°C (75°F) [RH = 84%]
Pressure (altimeter): 29.76 inches Hg (1008.0 mb)
Winds: from the NNW (330 degrees) at 7 MPH (6 knots; 3.1 m/s)
Visibility: 6 or more miles (10+ km)
Ceiling: 20000 feet AGL
Clouds: few clouds at 1700 feet AGL
few clouds at 3000 feet AGL
broken clouds at 20000 feet AGL
Weather: no significant weather observed at this time

METAR text: SLVR 212100Z 33010KT 9999 FEW017 FEW030CB BKN200 29/24 Q1008
Conditions at: SLVR (VIRU VIRU INTL A, BO) observed 2100 UTC 21 April 2019
Temperature: 29.0°C (84°F)
Dewpoint: 24.0°C (75°F) [RH = 74%]
Pressure (altimeter): 29.76 inches Hg (1008.0 mb)
Winds: from the NNW (330 degrees) at 12 MPH (10 knots; 5.1 m/s)
Visibility: 6 or more miles (10+ km)
Ceiling: 20000 feet AGL
Clouds: few clouds at 1700 feet AGL
few clouds at 3000 feet AGL
broken clouds at 20000 feet AGL
Weather: no significant weather observed at this time

METAR text: SLVR 212000Z 34014KT 9999 FEW015 SCT020 FEW030CB 31/24 Q1007
Conditions at: SLVR (VIRU VIRU INTL A, BO) observed 2000 UTC 21 April 2019
Temperature: 31.0°C (88°F)
Dewpoint: 24.0°C (75°F) [RH = 66%]
Pressure (altimeter): 29.73 inches Hg (1007.0 mb)
Winds: from the NNW (340 degrees) at 16 MPH (14 knots; 7.2 m/s)
Visibility: 6 or more miles (10+ km)
Ceiling: at least 12,000 feet AGL
Clouds: few clouds at 1500 feet AGL
scattered clouds at 2000 feet AGL
few clouds at 3000 feet AGL
Weather: no significant weather observed at this time

METAR text: SLVR 211900Z 34012KT 9999 FEW015 SCT017 32/24 Q1008
Conditions at: SLVR (VIRU VIRU INTL A, BO) observed 1900 UTC 21 April 2019
Temperature: 32.0°C (90°F)
Dewpoint: 24.0°C (75°F) [RH = 63%]
Pressure (altimeter): 29.76 inches Hg (1008.0 mb)
Winds: from the NNW (340 degrees) at 14 MPH (12 knots; 6.2 m/s)
Visibility: 6 or more miles (10+ km)
Ceiling: at least 12,000 feet AGL
Clouds: few clouds at 1500 feet AGL
scattered clouds at 1700 feet AGL
Weather: no significant weather observed at this time

METAR text: SLVR 211800Z 34013KT 9999 FEW015 SCT017 30/23 Q1009
Conditions at: SLVR (VIRU VIRU INTL A, BO) observed 1800 UTC 21 April 2019
Temperature: 30.0°C (86°F)
Dewpoint: 23.0°C (73°F) [RH = 66%]
Pressure (altimeter): 29.79 inches Hg (1009.0 mb)
Winds: from the NNW (340 degrees) at 15 MPH (13 knots; 6.7 m/s)
Visibility: 6 or more miles (10+ km)
Ceiling: at least 12,000 feet AGL
Clouds: few clouds at 1500 feet AGL
scattered clouds at 1700 feet AGL
Weather: no significant weather observed at this time

METAR text: SLVR 211700Z 34010G21KT 9999 FEW015 SCT017 BKN200 30/23 Q1011
Conditions at: SLVR (VIRU VIRU INTL A, BO) observed 1700 UTC 21 April 2019
Temperature: 30.0°C (86°F)
Dewpoint: 23.0°C (73°F) [RH = 66%]
Pressure (altimeter): 29.85 inches Hg (1011.0 mb)
Winds: from the NNW (340 degrees) at 12 MPH (10 knots; 5.1 m/s)
gusting to 24 MPH (21 knots; 10.8 m/s)
Visibility: 6 or more miles (10+ km)
Ceiling: 20000 feet AGL
Clouds: few clouds at 1500 feet AGL
scattered clouds at 1700 feet AGL
broken clouds at 20000 feet AGL
Weather: no significant weather observed at this time

METAR text: SLVR 211600Z 34012G24KT 9999 SCT012 SCT016 BKN200 30/25 Q1011
Conditions at: SLVR (VIRU VIRU INTL A, BO) observed 1600 UTC 21 April 2019
Temperature: 30.0°C (86°F)
Dewpoint: 25.0°C (77°F) [RH = 75%]
Pressure (altimeter): 29.85 inches Hg (1011.0 mb)
Winds: from the NNW (340 degrees) at 14 MPH (12 knots; 6.2 m/s)
gusting to 28 MPH (24 knots; 12.3 m/s)
Visibility: 6 or more miles (10+ km)
Ceiling: 20000 feet AGL
Clouds: scattered clouds at 1200 feet AGL
scattered clouds at 1600 feet AGL
broken clouds at 20000 feet AGL
Weather: no significant weather observed at this time

METAR text: SLVR 211500Z 33010G20KT 9999 SCT009 BKN015 BKN200 29/25 Q1012
Conditions at: SLVR (VIRU VIRU INTL A, BO) observed 1500 UTC 21 April 2019
Temperature: 29.0°C (84°F)
Dewpoint: 25.0°C (77°F) [RH = 79%]
Pressure (altimeter): 29.88 inches Hg (1012.0 mb)
Winds: from the NNW (330 degrees) at 12 MPH (10 knots; 5.1 m/s)
gusting to 23 MPH (20 knots; 10.3 m/s)
Visibility: 6 or more miles (10+ km)
Ceiling: 1500 feet AGL
Clouds: scattered clouds at 900 feet AGL
broken clouds at 1500 feet AGL
broken clouds at 20000 feet AGL
Weather: no significant weather observed at this time

METAR text: SLVR 211400Z 34010G20KT 9999 SCT008 BKN012 BKN200 26/24 Q1013
Conditions at: SLVR (VIRU VIRU INTL A, BO) observed 1400 UTC 21 April 2019
Temperature: 26.0°C (79°F)
Dewpoint: 24.0°C (75°F) [RH = 89%]
Pressure (altimeter): 29.91 inches Hg (1013.0 mb)
Winds: from the NNW (340 degrees) at 12 MPH (10 knots; 5.1 m/s)
gusting to 23 MPH (20 knots; 10.3 m/s)
Visibility: 6 or more miles (10+ km)
Ceiling: 1200 feet AGL
Clouds: scattered clouds at 800 feet AGL
broken clouds at 1200 feet AGL
broken clouds at 20000 feet AGL
Weather: no significant weather observed at this time

METAR text: SLVR 211300Z 34010G22KT 9999 FEW007 BKN010 FEW030CB BKN200 26/ 24 Q1012
Conditions at: SLVR (VIRU VIRU INTL A, BO) observed 1300 UTC 21 April 2019
Temperature: 26.0°C (79°F)
Dewpoint: missing
Pressure (altimeter): 29.88 inches Hg (1012.0 mb)
Winds: from the NNW (340 degrees) at 12 MPH (10 knots; 5.1 m/s)
gusting to 25 MPH (22 knots; 11.3 m/s)
Visibility: 6 or more miles (10+ km)
Ceiling: 1000 feet AGL
Clouds: few clouds at 700 feet AGL
broken clouds at 1000 feet AGL
few clouds at 3000 feet AGL
broken clouds at 20000 feet AGL
Weather: no significant weather observed at this time

METAR text: SLVR 211200Z 34010G20KT 9999 SCT006 BKN008 FEW030CB BKN200 25/24 Q1011
Conditions at: SLVR (VIRU VIRU INTL A, BO) observed 1200 UTC 21 April 2019
Temperature: 25.0°C (77°F)
Dewpoint: 24.0°C (75°F) [RH = 94%]
Pressure (altimeter): 29.85 inches Hg (1011.0 mb)
Winds: from the NNW (340 degrees) at 12 MPH (10 knots; 5.1 m/s)
gusting to 23 MPH (20 knots; 10.3 m/s)
Visibility: 6 or more miles (10+ km)
Ceiling: 800 feet AGL
Clouds: scattered clouds at 600 feet AGL
broken clouds at 800 feet AGL
few clouds at 3000 feet AGL
broken clouds at 20000 feet AGL
Weather: no significant weather observed at this time

METAR text: SLVR 211100Z 34010KT 9999 SCT006 BKN008 FEW030CB BKN200 25/24 Q1010
Conditions at: SLVR (VIRU VIRU INTL A, BO) observed 1100 UTC 21 April 2019
Temperature: 25.0°C (77°F)
Dewpoint: 24.0°C (75°F) [RH = 94%]
Pressure (altimeter): 29.82 inches Hg (1010.0 mb)
Winds: from the NNW (340 degrees) at 12 MPH (10 knots; 5.1 m/s)
Visibility: 6 or more miles (10+ km)
Ceiling: 800 feet AGL
Clouds: scattered clouds at 600 feet AGL
broken clouds at 800 feet AGL
few clouds at 3000 feet AGL
broken clouds at 20000 feet AGL
Weather: no significant weather observed at this time

METAR text: SLVR 211000Z 35012KT 9999 SCT006 BKN008 FEW030CB BKN200 24/24 Q1009
Conditions at: SLVR (VIRU VIRU INTL A, BO) observed 1000 UTC 21 April 2019
Temperature: 24.0°C (75°F)
Dewpoint: 24.0°C (75°F) [RH = 100%]
Pressure (altimeter): 29.79 inches Hg (1009.0 mb)
Winds: from the N (350 degrees) at 14 MPH (12 knots; 6.2 m/s)
Visibility: 6 or more miles (10+ km)
Ceiling: 800 feet AGL
Clouds: scattered clouds at 600 feet AGL
broken clouds at 800 feet AGL
few clouds at 3000 feet AGL
broken clouds at 20000 feet AGL
Weather: no significant weather observed at this time

METAR text: SLVR 210900Z 35010KT 9999 BKN008 BKN012 FEW030CB 24/24 Q1009
Conditions at: SLVR (VIRU VIRU INTL A, BO) observed 0900 UTC 21 April 2019
Temperature: 24.0°C (75°F)
Dewpoint: 24.0°C (75°F) [RH = 100%]
Pressure (altimeter): 29.79 inches Hg (1009.0 mb)
Winds: from the N (350 degrees) at 12 MPH (10 knots; 5.1 m/s)
Visibility: 6 or more miles (10+ km)
Ceiling: 800 feet AGL
Clouds: broken clouds at 800 feet AGL
broken clouds at 1200 feet AGL
few clouds at 3000 feet AGL
Weather: no significant weather observed at this time

METAR text: SLVR 210800Z 36007KT 9999 SCT006 SCT013 FEW030CB BKN200 24/24 Q1010
Conditions at: SLVR (VIRU VIRU INTL A, BO) observed 0800 UTC 21 April 2019
Temperature: 24.0°C (75°F)
Dewpoint: 24.0°C (75°F) [RH = 100%]
Pressure (altimeter): 29.82 inches Hg (1010.0 mb)
Winds: from the N (360 degrees) at 8 MPH (7 knots; 3.6 m/s)
Visibility: 6 or more miles (10+ km)
Ceiling: 20000 feet AGL
Clouds: scattered clouds at 600 feet AGL
scattered clouds at 1300 feet AGL
few clouds at 3000 feet AGL
broken clouds at 20000 feet AGL
Weather: no significant weather observed at this time

METAR text: SLVR 210700Z 35007KT 9999 SCT006 SCT013 FEW030CB 25/24 Q1009
Conditions at: SLVR (VIRU VIRU INTL A, BO) observed 0700 UTC 21 April 2019
Temperature: 25.0°C (77°F)
Dewpoint: 24.0°C (75°F) [RH = 94%]
Pressure (altimeter): 29.79 inches Hg (1009.0 mb)
Winds: from the N (350 degrees) at 8 MPH (7 knots; 3.6 m/s)
Visibility: 6 or more miles (10+ km)
Ceiling: at least 12,000 feet AGL
Clouds: scattered clouds at 600 feet AGL
scattered clouds at 1300 feet AGL
few clouds at 3000 feet AGL
Weather: no significant weather observed at this time

METAR text: SLVR 210600Z 36006KT 9999 SCT006 SCT013 FEW030CB 25/24 Q1009
Conditions at: SLVR (VIRU VIRU INTL A, BO) observed 0600 UTC 21 April 2019
Temperature: 25.0°C (77°F)
Dewpoint: 24.0°C (75°F) [RH = 94%]
Pressure (altimeter): 29.79 inches Hg (1009.0 mb)
Winds: from the N (360 degrees) at 7 MPH (6 knots; 3.1 m/s)
Visibility: 6 or more miles (10+ km)
Ceiling: at least 12,000 feet AGL
Clouds: scattered clouds at 600 feet AGL
scattered clouds at 1300 feet AGL
few clouds at 3000 feet AGL
Weather: no significant weather observed at this time

METAR text: SLVR 210500Z 01007KT 9999 SCT007 BKN017 25/24 Q1010
Conditions at: SLVR (VIRU VIRU INTL A, BO) observed 0500 UTC 21 April 2019
Temperature: 25.0°C (77°F)
Dewpoint: 24.0°C (75°F) [RH = 94%]
Pressure (altimeter): 29.82 inches Hg (1010.0 mb)
Winds: from the N (10 degrees) at 8 MPH (7 knots; 3.6 m/s)
Visibility: 6 or more miles (10+ km)
Ceiling: 1700 feet AGL
Clouds: scattered clouds at 700 feet AGL
broken clouds at 1700 feet AGL
Weather: no significant weather observed at this time

METAR text: SLVR 210400Z 36007KT 9999 SCT020 SCT070 25/24 Q1010
Conditions at: SLVR (VIRU VIRU INTL A, BO) observed 0400 UTC 21 April 2019
Temperature: 25.0°C (77°F)
Dewpoint: 24.0°C (75°F) [RH = 94%]
Pressure (altimeter): 29.82 inches Hg (1010.0 mb)
Winds: from the N (360 degrees) at 8 MPH (7 knots; 3.6 m/s)
Visibility: 6 or more miles (10+ km)
Ceiling: at least 12,000 feet AGL
Clouds: scattered clouds at 2000 feet AGL
scattered clouds at 7000 feet AGL
Weather: no significant weather observed at this time

METAR text: SLVR 210300Z 35006KT 9999 SCT020 BKN070 25/24 Q1010
Conditions at: SLVR (VIRU VIRU INTL A, BO) observed 0300 UTC 21 April 2019
Temperature: 25.0°C (77°F)
Dewpoint: 24.0°C (75°F) [RH = 94%]
Pressure (altimeter): 29.82 inches Hg (1010.0 mb)
Winds: from the N (350 degrees) at 7 MPH (6 knots; 3.1 m/s)
Visibility: 6 or more miles (10+ km)
Ceiling: 7000 feet AGL
Clouds: scattered clouds at 2000 feet AGL
broken clouds at 7000 feet AGL
Weather: no significant weather observed at this time

METAR text: SLVR 210200Z 34005KT 9999 SCT020 SCT070 25/24 Q1010
Conditions at: SLVR (VIRU VIRU INTL A, BO) observed 0200 UTC 21 April 2019
Temperature: 25.0°C (77°F)
Dewpoint: 24.0°C (75°F) [RH = 94%]
Pressure (altimeter): 29.82 inches Hg (1010.0 mb)
Winds: from the NNW (340 degrees) at 6 MPH (5 knots; 2.6 m/s)
Visibility: 6 or more miles (10+ km)
Ceiling: at least 12,000 feet AGL
Clouds: scattered clouds at 2000 feet AGL
scattered clouds at 7000 feet AGL
Weather: no significant weather observed at this time

METAR text: SLVR 210100Z 36006KT 9999 BKN020 26/24 Q1010
Conditions at: SLVR (VIRU VIRU INTL A, BO) observed 0100 UTC 21 April 2019
Temperature: 26.0°C (79°F)
Dewpoint: 24.0°C (75°F) [RH = 89%]
Pressure (altimeter): 29.82 inches Hg (1010.0 mb)
Winds: from the N (360 degrees) at 7 MPH (6 knots; 3.1 m/s)
Visibility: 6 or more miles (10+ km)
Ceiling: 2000 feet AGL
Clouds: broken clouds at 2000 feet AGL
Weather: no significant weather observed at this time

METAR text: SLVR 210000Z 35005KT 9999 BKN015 26/24 Q1009
Conditions at: SLVR (VIRU VIRU INTL A, BO) observed 0000 UTC 21 April 2019
Temperature: 26.0°C (79°F)
Dewpoint: 24.0°C (75°F) [RH = 89%]
Pressure (altimeter): 29.79 inches Hg (1009.0 mb)
Winds: from the N (350 degrees) at 6 MPH (5 knots; 2.6 m/s)
Visibility: 6 or more miles (10+ km)
Ceiling: 1500 feet AGL
Clouds: broken clouds at 1500 feet AGL
Weather: no significant weather observed at this time

METAR text: SLVR 202300Z 34006KT 9999 FEW017 SCT200 26/24 Q1008
Conditions at: SLVR (VIRU VIRU INTL A, BO) observed 2300 UTC 20 April 2019
Temperature: 26.0°C (79°F)
Dewpoint: 24.0°C (75°F) [RH = 89%]
Pressure (altimeter): 29.76 inches Hg (1008.0 mb)
Winds: from the NNW (340 degrees) at 7 MPH (6 knots; 3.1 m/s)
Visibility: 6 or more miles (10+ km)
Ceiling: at least 12,000 feet AGL
Clouds: few clouds at 1700 feet AGL
scattered clouds at 20000 feet AGL
Weather: no significant weather observed at this time

METAR text: SLVR 202200Z 33010KT 9999 SCT017 27/24 Q1008
Conditions at: SLVR (VIRU VIRU INTL A, BO) observed 2200 UTC 20 April 2019
Temperature: 27.0°C (81°F)
Dewpoint: 24.0°C (75°F) [RH = 84%]
Pressure (altimeter): 29.76 inches Hg (1008.0 mb)
Winds: from the NNW (330 degrees) at 12 MPH (10 knots; 5.1 m/s)
Visibility: 6 or more miles (10+ km)
Ceiling: at least 12,000 feet AGL
Clouds: scattered clouds at 1700 feet AGL
Weather: no significant weather observed at this time

METAR text: SLVR 202100Z 34014G26KT 9999 SCT017 30/23 Q1008
Conditions at: SLVR (VIRU VIRU INTL A, BO) observed 2100 UTC 20 April 2019
Temperature: 30.0°C (86°F)
Dewpoint: 23.0°C (73°F) [RH = 66%]
Pressure (altimeter): 29.76 inches Hg (1008.0 mb)
Winds: from the NNW (340 degrees) at 16 MPH (14 knots; 7.2 m/s)
gusting to 30 MPH (26 knots; 13.4 m/s)
Visibility: 6 or more miles (10+ km)
Ceiling: at least 12,000 feet AGL
Clouds: scattered clouds at 1700 feet AGL
Weather: no significant weather observed at this time

METAR text: SLVR 202000Z 34017G29KT 9999 SCT017 32/22 Q1008
Conditions at: SLVR (VIRU VIRU INTL A, BO) observed 2000 UTC 20 April 2019
Temperature: 32.0°C (90°F)
Dewpoint: 22.0°C (72°F) [RH = 56%]
Pressure (altimeter): 29.76 inches Hg (1008.0 mb)
Winds: from the NNW (340 degrees) at 20 MPH (17 knots; 8.7 m/s)
gusting to 33 MPH (29 knots; 14.9 m/s)
Visibility: 6 or more miles (10+ km)
Ceiling: at least 12,000 feet AGL
Clouds: scattered clouds at 1700 feet AGL
Weather: no significant weather observed at this time

METAR text: SLVR 201900Z 33018G29KT 9999 FEW017 SCT020 33/23 Q1008
Conditions at: SLVR (VIRU VIRU INTL A, BO) observed 1900 UTC 20 April 2019
Temperature: 33.0°C (91°F)
Dewpoint: 23.0°C (73°F) [RH = 56%]
Pressure (altimeter): 29.76 inches Hg (1008.0 mb)
Winds: from the NNW (330 degrees) at 21 MPH (18 knots; 9.3 m/s)
gusting to 33 MPH (29 knots; 14.9 m/s)
Visibility: 6 or more miles (10+ km)
Ceiling: at least 12,000 feet AGL
Clouds: few clouds at 1700 feet AGL
scattered clouds at 2000 feet AGL
Weather: no significant weather observed at this time

METAR text: SLVR 201800Z 34014G27KT 9999 FEW017 SCT020 33/24 Q1009
Conditions at: SLVR (VIRU VIRU INTL A, BO) observed 1800 UTC 20 April 2019
Temperature: 33.0°C (91°F)
Dewpoint: 24.0°C (75°F) [RH = 59%]
Pressure (altimeter): 29.79 inches Hg (1009.0 mb)
Winds: from the NNW (340 degrees) at 16 MPH (14 knots; 7.2 m/s)
gusting to 31 MPH (27 knots; 13.9 m/s)
Visibility: 6 or more miles (10+ km)
Ceiling: at least 12,000 feet AGL
Clouds: few clouds at 1700 feet AGL
scattered clouds at 2000 feet AGL
Weather: no significant weather observed at this time

METAR text: SLVR 201700Z 33017G27KT 9999 FEW015 SCT020 32/26 Q1011
Conditions at: SLVR (VIRU VIRU INTL A, BO) observed 1700 UTC 20 April 2019
Temperature: 32.0°C (90°F)
Dewpoint: 26.0°C (79°F) [RH = 71%]
Pressure (altimeter): 29.85 inches Hg (1011.0 mb)
Winds: from the NNW (330 degrees) at 20 MPH (17 knots; 8.7 m/s)
gusting to 31 MPH (27 knots; 13.9 m/s)
Visibility: 6 or more miles (10+ km)
Ceiling: at least 12,000 feet AGL
Clouds: few clouds at 1500 feet AGL
scattered clouds at 2000 feet AGL
Weather: no significant weather observed at this time

METAR text: SLVR 201600Z 34014G25KT 9999 SCT015 BKN020 30/25 Q1011
Conditions at: SLVR (VIRU VIRU INTL A, BO) observed 1600 UTC 20 April 2019
Temperature: 30.0°C (86°F)
Dewpoint: 25.0°C (77°F) [RH = 75%]
Pressure (altimeter): 29.85 inches Hg (1011.0 mb)
Winds: from the NNW (340 degrees) at 16 MPH (14 knots; 7.2 m/s)
gusting to 29 MPH (25 knots; 12.9 m/s)
Visibility: 6 or more miles (10+ km)
Ceiling: 2000 feet AGL
Clouds: scattered clouds at 1500 feet AGL
broken clouds at 2000 feet AGL
Weather: no significant weather observed at this time

METAR text: SLVR 201500Z 34016G27KT 9999 FEW015 BKN020 30/25 Q1012
Conditions at: SLVR (VIRU VIRU INTL A, BO) observed 1500 UTC 20 April 2019
Temperature: 30.0°C (86°F)
Dewpoint: 25.0°C (77°F) [RH = 75%]
Pressure (altimeter): 29.88 inches Hg (1012.0 mb)
Winds: from the NNW (340 degrees) at 18 MPH (16 knots; 8.2 m/s)
gusting to 31 MPH (27 knots; 13.9 m/s)
Visibility: 6 or more miles (10+ km)
Ceiling: 2000 feet AGL
Clouds: few clouds at 1500 feet AGL
broken clouds at 2000 feet AGL
Weather: no significant weather observed at this time

Forecast for: SLVR (VIRU VIRU INTL A, BO)
Text: TAF SLVR 212130Z 2200/2224 35010KT 9999 BKN017 FEW030CB TX26/2219Z TN20/2211Z
Forecast period: 0000 to 0900 UTC 22 April 2019
Forecast type: FROM: standard forecast or significant change
Winds: from the N (350 degrees) at 12 MPH (10 knots; 5.1 m/s)
Visibility: 6 or more miles 10+ km)
Ceiling: 1700 feet AGL
Clouds: broken clouds at 1700 feet AGL
few clouds at 3000 feet AGL
Weather: no significant weather forecast for this period
Text: PROB30
Forecast period: 0600 to 0800 UTC 22 April 2019
Forecast type: TEMPORARY: The following changes expected for less than half the time period
Winds: variable direction winds at 2 MPH (2 knots; 1.0 m/s)
Visibility: 5 miles (8 km)
Ceiling: 1000 feet AGL
Clouds: broken clouds at 1000 feet AGL
few clouds at 3000 feet AGL
Weather: SHRA  (rain showers)
Text: TEMPO 2206/2208 VRB02KT 8000 SHRA BKN010 FEW030CB
Forecast period: 0900 UTC 22 April 2019 to 0000 UTC 23 April 2019
Forecast type: BECOMING: Conditions expected to become as follows by 1200 UTC 22 April 2019
Winds: from the S (180 degrees) at 17 MPH (15 knots; 7.7 m/s)
Visibility: 4 miles (6 km)
Ceiling: 800 feet AGL
Clouds: broken clouds at 800 feet AGL
broken clouds at 1500 feet AGL
few clouds at 3000 feet AGL
Weather: TSRA  (rain associated with thunderstorm(s))
Text: BECMG 2209/2212 18015KT 6000 TSRA BKN008 BKN015 FEW030CB
Forecast period: 0000 UTC 22 April 2019 to 0000 UTC 23 April 2019
Forecast type: FROM: standard forecast or significant change
Visibility: missing
Ceiling: unknown
Clouds: missing
Weather: no significant weather forecast for this period